»·PEaware :: DAL438 KSBA-KSAN

DAL438 :: KSBA-KSAN

FLIGHT INFORMATION

Flight Status: Arrived
Operator:
Delta Air Lines
More flights by this operator :: More flights under this callsign
Pilot: Nils Z. (23708)
Aircraft: BOEING 737-800
(B738)
More flights by this aircraft type
Origin: KSBA Santa Barbara Mun
United States
Destination: KSAN San Diego Intl-Lindbergh
United States
More flights between these airports :: More routes between these airports
Route: +MISHN2 MISHN SXC OHBEA PLYYA1
File this flight plan on PilotEdge
Remarks: RMK / SIMBRIEF
Altitude:
(Current/Filed)
26,000ft
Speed:
(Current/Filed)
355kts
Departed: 02-Mar-19 01:38 PM
Arrived: 02-Mar-19 02:16 PM
Distance/Time
Traveled:
167nm/0:38
Distance/Time
To Go:
Arrived

Flight Plot

Page will automatically refresh every two minutes.

Flight plan parsing failed; only flown route is shown


Map Options




Map Legend


Flown Route
Filed Route
Departure Airport
Arrival Airport
Navaid (VOR, NDB)
Fix

Horizontal Profiles

Position Reports

Time Latitude Longitude Heading Altitude Ground
Speed
02-Mar-19 12:59 34.424886 -119.837174 115 15ft 0kts
02-Mar-19 13:00 34.424886 -119.837174 115 15ft 0kts
02-Mar-19 13:01 34.424886 -119.837174 115 15ft 0kts
02-Mar-19 13:02 34.424886 -119.837174 115 15ft 0kts
02-Mar-19 13:03 34.424886 -119.837174 115 15ft 0kts
02-Mar-19 13:04 34.424886 -119.837174 115 15ft 0kts
02-Mar-19 13:05 34.424886 -119.837174 115 15ft 0kts
02-Mar-19 13:06 34.424886 -119.837174 115 15ft 0kts
02-Mar-19 13:07 34.424886 -119.837174 115 15ft 0kts
02-Mar-19 13:08 34.424886 -119.837174 115 15ft 0kts
02-Mar-19 13:09 34.424886 -119.837174 115 15ft 0kts
02-Mar-19 13:10 34.424886 -119.837174 115 15ft 0kts
02-Mar-19 13:11 34.424886 -119.837174 115 15ft 0kts
02-Mar-19 13:12 34.424886 -119.837174 115 15ft 0kts
02-Mar-19 13:13 34.424886 -119.837174 115 15ft 0kts
02-Mar-19 13:14 34.424886 -119.837174 115 15ft 0kts
02-Mar-19 13:15 34.424886 -119.837174 115 15ft 0kts
02-Mar-19 13:16 34.424886 -119.837174 115 15ft 0kts
02-Mar-19 13:17 34.424886 -119.837174 115 15ft 0kts
02-Mar-19 13:18 34.424886 -119.837174 115 15ft 0kts
02-Mar-19 13:19 34.424886 -119.837174 115 15ft 0kts
02-Mar-19 13:20 34.424886 -119.837174 115 15ft 0kts
02-Mar-19 13:21 34.424886 -119.837174 115 15ft 0kts
02-Mar-19 13:22 34.424886 -119.837174 115 15ft 0kts
02-Mar-19 13:23 34.424886 -119.837174 115 15ft 0kts
02-Mar-19 13:24 34.424886 -119.837174 115 15ft 0kts
02-Mar-19 13:25 34.424886 -119.837174 115 15ft 0kts
02-Mar-19 13:26 34.424886 -119.837174 115 15ft 0kts
02-Mar-19 13:27 34.424886 -119.837174 115 15ft 0kts
02-Mar-19 13:28 34.424886 -119.837174 115 15ft 0kts
02-Mar-19 13:29 34.424942 -119.837317 115 15ft 2kts
02-Mar-19 13:30 34.424757 -119.837764 351 16ft 1kts
02-Mar-19 13:31 34.424693 -119.837744 345 16ft 0kts
02-Mar-19 13:32 34.424693 -119.837744 345 16ft 0kts
02-Mar-19 13:33 34.426696 -119.838620 285 15ft 8kts
02-Mar-19 13:34 34.426601 -119.843060 267 17ft 20kts
02-Mar-19 13:35 34.426456 -119.850195 268 17ft 15kts
02-Mar-19 13:36 34.427492 -119.853789 71 17ft 13kts
02-Mar-19 13:37 34.428337 -119.820582 95 837ft 167kts
02-Mar-19 13:38 34.394844 -119.781108 138 2616ft 217kts
02-Mar-19 13:39 34.347043 -119.729375 138 3669ft 267kts
02-Mar-19 13:40 34.295872 -119.674042 138 6851ft 275kts
02-Mar-19 13:41 34.242149 -119.616004 138 7961ft 281kts
02-Mar-19 13:42 34.190001 -119.558438 129 10395ft 299kts
02-Mar-19 13:43 34.156126 -119.499100 123 10970ft 316kts
02-Mar-19 13:44 34.113119 -119.424009 127 10961ft 316kts
02-Mar-19 13:45 34.059376 -119.349200 131 10963ft 316kts
02-Mar-19 13:46 34.004963 -119.274411 131 10980ft 341kts
02-Mar-19 13:47 33.942616 -119.188916 131 10966ft 385kts
02-Mar-19 13:48 33.877240 -119.099481 131 10963ft 388kts
02-Mar-19 13:49 33.809005 -119.006375 131 10963ft 388kts
02-Mar-19 13:50 33.741594 -118.914631 131 10963ft 388kts
02-Mar-19 13:51 33.675317 -118.824644 131 10963ft 388kts
02-Mar-19 13:52 33.608186 -118.733759 131 10926ft 388kts
02-Mar-19 13:53 33.544156 -118.647285 131 10926ft 388kts
02-Mar-19 13:54 33.476340 -118.555930 131 13391ft 390kts
02-Mar-19 13:55 33.412267 -118.469824 131 14932ft 389kts
02-Mar-19 13:56 33.354300 -118.387044 115 14935ft 388kts
02-Mar-19 13:57 33.341574 -118.282034 80 14931ft 378kts
02-Mar-19 13:58 33.331071 -118.173658 109 14926ft 376kts
02-Mar-19 13:59 33.308785 -118.067251 102 14929ft 376kts
02-Mar-19 14:00 33.270200 -117.972672 131 14097ft 340kts
02-Mar-19 14:01 33.213911 -117.900352 133 12767ft 319kts
02-Mar-19 14:02 33.161902 -117.835470 133 11534ft 306kts
02-Mar-19 14:03 33.107775 -117.771359 137 9842ft 314kts
02-Mar-19 14:04 33.046576 -117.704371 137 7310ft 311kts
02-Mar-19 14:05 32.992115 -117.644580 137 6156ft 269kts
02-Mar-19 14:06 32.942844 -117.590547 137 5238ft 259kts
02-Mar-19 14:07 32.895562 -117.538764 137 4372ft 255kts
02-Mar-19 14:08 32.851170 -117.486311 129 3428ft 222kts
02-Mar-19 14:09 32.816304 -117.437524 130 2890ft 198kts
02-Mar-19 14:10 32.782986 -117.391422 128 2355ft 196kts
02-Mar-19 14:11 32.769639 -117.339256 105 1904ft 183kts
02-Mar-19 14:12 32.757847 -117.290224 106 1680ft 166kts
02-Mar-19 14:14 32.748211 -117.251001 111 1002ft 140kts
02-Mar-19 14:15 32.739671 -117.215006 105 405ft 138kts
02-Mar-19 14:16 32.733366 -117.188965 118 21ft 16kts
02-Mar-19 14:17 32.732568 -117.188549 210 19ft 4kts
02-Mar-19 14:18 32.733052 -117.191819 285 20ft 16kts
02-Mar-19 14:19 32.734123 -117.196727 247 17ft 11kts
02-Mar-19 14:20 32.733681 -117.197846 254 17ft 0kts

Navigation Log

Ident Type
Flight plan parsing failed, navigation log unavailable